sensor_id;sensor_type;location;lat;lon;timestamp;pressure;altitude;pressure_sealevel;temperature;humidity
79639;BME280;69114;49.108;8.280;2023-04-09T00:00:25;101234.72;;;8.58;63.13
79639;BME280;69114;49.108;8.280;2023-04-09T00:02:50;101233.34;;;8.60;63.36
79639;BME280;69114;49.108;8.280;2023-04-09T00:05:16;101238.31;;;8.53;63.02
79639;BME280;69114;49.108;8.280;2023-04-09T00:07:41;101226.97;;;8.55;63.18
79639;BME280;69114;49.108;8.280;2023-04-09T00:10:07;101227.22;;;8.48;63.26
79639;BME280;69114;49.108;8.280;2023-04-09T00:12:32;101225.56;;;8.47;64.19
79639;BME280;69114;49.108;8.280;2023-04-09T00:14:58;101222.78;;;8.47;64.27
79639;BME280;69114;49.108;8.280;2023-04-09T00:17:23;101225.25;;;8.49;64.68
79639;BME280;69114;49.108;8.280;2023-04-09T00:19:48;101226.09;;;8.44;65.52
79639;BME280;69114;49.108;8.280;2023-04-09T00:22:14;101225.56;;;8.42;66.34
79639;BME280;69114;49.108;8.280;2023-04-09T00:24:39;101226.38;;;8.42;66.03
79639;BME280;69114;49.108;8.280;2023-04-09T00:27:05;101219.72;;;8.43;66.10
79639;BME280;69114;49.108;8.280;2023-04-09T00:29:30;101220.00;;;8.37;66.01
79639;BME280;69114;49.108;8.280;2023-04-09T00:31:56;101221.63;;;8.33;66.52
79639;BME280;69114;49.108;8.280;2023-04-09T00:34:21;101214.13;;;8.28;67.16
79639;BME280;69114;49.108;8.280;2023-04-09T00:36:46;101221.31;;;8.24;67.55
79639;BME280;69114;49.108;8.280;2023-04-09T00:39:12;101216.59;;;8.19;66.88
79639;BME280;69114;49.108;8.280;2023-04-09T00:41:37;101211.59;;;8.16;66.97
79639;BME280;69114;49.108;8.280;2023-04-09T00:44:03;101223.28;;;8.24;67.52
79639;BME280;69114;49.108;8.280;2023-04-09T00:46:28;101211.03;;;8.19;66.38
79639;BME280;69114;49.108;8.280;2023-04-09T00:48:53;101213.28;;;8.17;66.90
79639;BME280;69114;49.108;8.280;2023-04-09T00:51:19;101218.25;;;8.15;65.94
79639;BME280;69114;49.108;8.280;2023-04-09T00:53:45;101214.38;;;8.16;66.44
79639;BME280;69114;49.108;8.280;2023-04-09T00:56:11;101221.59;;;8.23;66.55
79639;BME280;69114;49.108;8.280;2023-04-09T00:58:39;101219.91;;;8.16;65.83
79639;BME280;69114;49.108;8.280;2023-04-09T01:01:04;101209.38;;;8.08;66.53
79639;BME280;69114;49.108;8.280;2023-04-09T01:03:30;101216.56;;;8.04;66.29
79639;BME280;69114;49.108;8.280;2023-04-09T01:06:05;101212.13;;;8.03;65.04
79639;BME280;69114;49.108;8.280;2023-04-09T01:11:28;101216.81;;;7.92;65.51
79639;BME280;69114;49.108;8.280;2023-04-09T01:14:13;101218.72;;;7.87;66.83
79639;BME280;69114;49.108;8.280;2023-04-09T01:16:46;101208.75;;;7.86;66.41
79639;BME280;69114;49.108;8.280;2023-04-09T01:19:26;101206.50;;;7.83;66.38
79639;BME280;69114;49.108;8.280;2023-04-09T01:21:59;101216.53;;;7.84;66.38
79639;BME280;69114;49.108;8.280;2023-04-09T01:24:43;101209.88;;;7.85;66.49
79639;BME280;69114;49.108;8.280;2023-04-09T01:27:16;101208.19;;;7.79;65.94
79639;BME280;69114;49.108;8.280;2023-04-09T01:29:45;101199.88;;;7.79;65.90
79639;BME280;69114;49.108;8.280;2023-04-09T01:32:11;101211.53;;;7.86;65.90
79639;BME280;69114;49.108;8.280;2023-04-09T01:34:38;101210.69;;;7.85;66.40
79639;BME280;69114;49.108;8.280;2023-04-09T01:37:05;101209.56;;;7.81;66.09
79639;BME280;69114;49.108;8.280;2023-04-09T01:39:32;101219.81;;;7.81;66.35
79639;BME280;69114;49.108;8.280;2023-04-09T01:41:59;101213.16;;;7.82;66.30
79639;BME280;69114;49.108;8.280;2023-04-09T01:44:26;101220.38;;;7.78;66.90
79639;BME280;69114;49.108;8.280;2023-04-09T01:46:53;101212.59;;;7.69;66.90
79639;BME280;69114;49.108;8.280;2023-04-09T01:49:19;101210.91;;;7.74;67.13
79639;BME280;69114;49.108;8.280;2023-04-09T01:51:44;101211.47;;;7.65;67.38
79639;BME280;69114;49.108;8.280;2023-04-09T01:54:11;101207.03;;;7.69;66.56
79639;BME280;69114;49.108;8.280;2023-04-09T01:56:44;101224.50;;;7.70;66.55
79639;BME280;69114;49.108;8.280;2023-04-09T01:59:10;101217.03;;;7.70;66.94
79639;BME280;69114;49.108;8.280;2023-04-09T02:01:45;101222.00;;;7.74;66.72
79639;BME280;69114;49.108;8.280;2023-04-09T02:04:39;101227.53;;;7.68;66.67
79639;BME280;69114;49.108;8.280;2023-04-09T02:07:09;101223.91;;;7.63;66.77
79639;BME280;69114;49.108;8.280;2023-04-09T02:09:39;101222.00;;;7.68;66.46
79639;BME280;69114;49.108;8.280;2023-04-09T02:12:11;101222.81;;;7.69;66.36
79639;BME280;69114;49.108;8.280;2023-04-09T02:14:39;101223.69;;;7.69;66.92
79639;BME280;69114;49.108;8.280;2023-04-09T02:17:05;101225.31;;;7.65;66.13
79639;BME280;69114;49.108;8.280;2023-04-09T02:19:40;101224.47;;;7.60;66.91
79639;BME280;69114;49.108;8.280;2023-04-09T02:22:06;101227.25;;;7.65;67.11
79639;BME280;69114;49.108;8.280;2023-04-09T02:24:31;101216.19;;;7.65;67.34
79639;BME280;69114;49.108;8.280;2023-04-09T02:26:57;101219.19;;;7.63;67.13
79639;BME280;69114;49.108;8.280;2023-04-09T02:29:22;101215.88;;;7.61;67.46
79639;BME280;69114;49.108;8.280;2023-04-09T02:31:47;101216.09;;;7.55;66.69
79639;BME280;69114;49.108;8.280;2023-04-09T02:34:14;101215.28;;;7.54;67.50
79639;BME280;69114;49.108;8.280;2023-04-09T02:36:39;101215.00;;;7.51;67.12
79639;BME280;69114;49.108;8.280;2023-04-09T02:39:04;101209.72;;;7.54;67.21
79639;BME280;69114;49.108;8.280;2023-04-09T02:41:30;101219.47;;;7.57;67.22
79639;BME280;69114;49.108;8.280;2023-04-09T02:43:55;101212.78;;;7.53;67.15
79639;BME280;69114;49.108;8.280;2023-04-09T02:46:20;101211.66;;;7.49;68.15
79639;BME280;69114;49.108;8.280;2023-04-09T02:48:46;101214.69;;;7.47;67.78
79639;BME280;69114;49.108;8.280;2023-04-09T02:51:11;101210.78;;;7.38;68.13
79639;BME280;69114;49.108;8.280;2023-04-09T02:53:36;101215.78;;;7.36;67.71
79639;BME280;69114;49.108;8.280;2023-04-09T02:56:04;101221.88;;;7.38;67.52
79639;BME280;69114;49.108;8.280;2023-04-09T02:58:30;101209.59;;;7.24;68.14
79639;BME280;69114;49.108;8.280;2023-04-09T03:00:55;101217.94;;;7.29;69.03
79639;BME280;69114;49.108;8.280;2023-04-09T03:03:20;101212.69;;;7.32;67.78
79639;BME280;69114;49.108;8.280;2023-04-09T03:05:46;101206.63;;;7.40;66.55
79639;BME280;69114;49.108;8.280;2023-04-09T03:08:11;101208.03;;;7.43;67.44
79639;BME280;69114;49.108;8.280;2023-04-09T03:10:36;101211.09;;;7.41;67.47
79639;BME280;69114;49.108;8.280;2023-04-09T03:13:02;101213.00;;;7.36;67.89
79639;BME280;69114;49.108;8.280;2023-04-09T03:15:27;101209.09;;;7.32;67.89
79639;BME280;69114;49.108;8.280;2023-04-09T03:17:52;101199.09;;;7.31;67.98
79639;BME280;69114;49.108;8.280;2023-04-09T03:20:18;101200.44;;;7.18;68.06
79639;BME280;69114;49.108;8.280;2023-04-09T03:22:43;101193.22;;;7.17;68.66
79639;BME280;69114;49.108;8.280;2023-04-09T03:25:08;101205.13;;;7.17;68.81
79639;BME280;69114;49.108;8.280;2023-04-09T03:27:34;101205.97;;;7.18;69.39
79639;BME280;69114;49.108;8.280;2023-04-09T03:29:59;101195.09;;;7.11;69.33
79639;BME280;69114;49.108;8.280;2023-04-09T03:32:24;101191.75;;;7.04;69.53
79639;BME280;69114;49.108;8.280;2023-04-09T03:34:50;101195.63;;;7.03;69.13
79639;BME280;69114;49.108;8.280;2023-04-09T03:37:15;101199.47;;;7.02;69.08
79639;BME280;69114;49.108;8.280;2023-04-09T03:39:41;101207.88;;;7.12;68.82
79639;BME280;69114;49.108;8.280;2023-04-09T03:42:06;101213.66;;;7.11;68.80
79639;BME280;69114;49.108;8.280;2023-04-09T03:44:31;101212.84;;;7.10;69.24
79639;BME280;69114;49.108;8.280;2023-04-09T03:46:57;101202.84;;;7.09;69.22
79639;BME280;69114;49.108;8.280;2023-04-09T03:49:22;101206.19;;;7.11;68.80
79639;BME280;69114;49.108;8.280;2023-04-09T03:51:47;101211.72;;;7.11;68.08
79639;BME280;69114;49.108;8.280;2023-04-09T03:54:13;101210.03;;;7.05;68.99
79639;BME280;69114;49.108;8.280;2023-04-09T03:56:38;101203.38;;;7.06;68.79
79639;BME280;69114;49.108;8.280;2023-04-09T03:59:03;101205.63;;;7.09;68.23
79639;BME280;69114;49.108;8.280;2023-04-09T04:01:29;101206.72;;;7.03;69.19
79639;BME280;69114;49.108;8.280;2023-04-09T04:03:54;101202.25;;;7.02;69.17
79639;BME280;69114;49.108;8.280;2023-04-09T04:06:20;101207.81;;;7.07;68.50
79639;BME280;69114;49.108;8.280;2023-04-09T04:08:45;101208.09;;;7.06;68.80
79639;BME280;69114;49.108;8.280;2023-04-09T04:11:11;101207.22;;;7.00;69.17
79639;BME280;69114;49.108;8.280;2023-04-09T04:13:36;101206.91;;;6.97;69.37
79639;BME280;69114;49.108;8.280;2023-04-09T04:16:06;101202.25;;;7.02;68.68
79639;BME280;69114;49.108;8.280;2023-04-09T04:18:31;101210.00;;;7.00;69.08
79639;BME280;69114;49.108;8.280;2023-04-09T04:20:56;101205.75;;;6.87;69.56
79639;BME280;69114;49.108;8.280;2023-04-09T04:23:22;101208.84;;;6.91;69.71
79639;BME280;69114;49.108;8.280;2023-04-09T04:25:47;101208.53;;;6.87;70.19
79639;BME280;69114;49.108;8.280;2023-04-09T04:28:12;101211.59;;;6.91;69.65
79639;BME280;69114;49.108;8.280;2023-04-09T04:30:40;101206.38;;;6.95;69.53
79639;BME280;69114;49.108;8.280;2023-04-09T04:33:06;101212.13;;;6.88;69.69
79639;BME280;69114;49.108;8.280;2023-04-09T04:35:32;101211.59;;;6.91;69.98
79639;BME280;69114;49.108;8.280;2023-04-09T04:37:57;101213.81;;;6.89;70.29
79639;BME280;69114;49.108;8.280;2023-04-09T04:40:22;101211.00;;;6.84;70.00
79639;BME280;69114;49.108;8.280;2023-04-09T04:42:48;101214.84;;;6.83;70.97
79639;BME280;69114;49.108;8.280;2023-04-09T04:45:13;101214.94;;;6.93;69.81
79639;BME280;69114;49.108;8.280;2023-04-09T04:47:38;101207.91;;;6.75;70.65
79639;BME280;69114;49.108;8.280;2023-04-09T04:50:05;101219.22;;;6.74;71.31
79639;BME280;69114;49.108;8.280;2023-04-09T04:52:30;101215.94;;;6.77;70.89
79639;BME280;69114;49.108;8.280;2023-04-09T04:54:56;101220.94;;;6.80;70.89
79639;BME280;69114;49.108;8.280;2023-04-09T04:57:21;101216.56;;;6.84;70.89
79639;BME280;69114;49.108;8.280;2023-04-09T04:59:46;101225.38;;;6.81;71.17
79639;BME280;69114;49.108;8.280;2023-04-09T05:02:12;101216.56;;;6.84;71.34
79639;BME280;69114;49.108;8.280;2023-04-09T05:04:37;101214.84;;;6.83;71.94
79639;BME280;69114;49.108;8.280;2023-04-09T05:07:02;101219.88;;;6.86;71.32
79639;BME280;69114;49.108;8.280;2023-04-09T05:09:27;101226.75;;;6.83;71.06
79639;BME280;69114;49.108;8.280;2023-04-09T05:11:53;101222.66;;;6.86;71.43
79639;BME280;69114;49.108;8.280;2023-04-09T05:14:18;101225.97;;;6.88;71.60
79639;BME280;69114;49.108;8.280;2023-04-09T05:16:45;101221.53;;;6.87;71.45
79639;BME280;69114;49.108;8.280;2023-04-09T05:19:11;101225.41;;;6.86;71.47
79639;BME280;69114;49.108;8.280;2023-04-09T05:21:36;101224.84;;;6.84;71.06
79639;BME280;69114;49.108;8.280;2023-04-09T05:24:01;101227.63;;;6.84;71.37
79639;BME280;69114;49.108;8.280;2023-04-09T05:26:27;101235.31;;;6.77;70.48
79639;BME280;69114;49.108;8.280;2023-04-09T05:28:53;101237.53;;;6.75;70.99
79639;BME280;69114;49.108;8.280;2023-04-09T05:31:18;101237.53;;;6.75;70.91
79639;BME280;69114;49.108;8.280;2023-04-09T05:33:43;101240.25;;;6.70;71.89
79639;BME280;69114;49.108;8.280;2023-04-09T05:36:14;101239.09;;;6.65;71.58
79639;BME280;69114;49.108;8.280;2023-04-09T05:38:40;101240.19;;;6.64;72.10
79639;BME280;69114;49.108;8.280;2023-04-09T05:41:06;101242.63;;;6.56;71.57
79639;BME280;69114;49.108;8.280;2023-04-09T05:43:31;101240.38;;;6.53;71.24
79639;BME280;69114;49.108;8.280;2023-04-09T05:45:57;101246.69;;;6.48;72.16
79639;BME280;69114;49.108;8.280;2023-04-09T05:48:22;101244.44;;;6.45;72.47
79639;BME280;69114;49.108;8.280;2023-04-09T05:50:51;101247.44;;;6.38;73.26
79639;BME280;69114;49.108;8.280;2023-04-09T05:53:20;101250.47;;;6.37;73.88
79639;BME280;69114;49.108;8.280;2023-04-09T05:55:46;101247.91;;;6.30;73.22
79639;BME280;69114;49.108;8.280;2023-04-09T05:58:13;101255.38;;;6.30;72.71
79639;BME280;69114;49.108;8.280;2023-04-09T06:00:39;101251.53;;;6.36;72.96
79639;BME280;69114;49.108;8.280;2023-04-09T06:03:04;101249.06;;;6.34;73.13
79639;BME280;69114;49.108;8.280;2023-04-09T06:05:30;101256.00;;;6.37;73.13
79639;BME280;69114;49.108;8.280;2023-04-09T06:07:55;101258.78;;;6.37;72.78
79639;BME280;69114;49.108;8.280;2023-04-09T06:10:21;101259.00;;;6.35;73.07
79639;BME280;69114;49.108;8.280;2023-04-09T06:12:46;101253.25;;;6.37;73.42
79639;BME280;69114;49.108;8.280;2023-04-09T06:15:12;101260.16;;;6.39;73.16
79639;BME280;69114;49.108;8.280;2023-04-09T06:17:37;101255.56;;;6.50;73.14
79639;BME280;69114;49.108;8.280;2023-04-09T06:20:03;101264.44;;;6.52;73.04
79639;BME280;69114;49.108;8.280;2023-04-09T06:22:28;101264.66;;;6.46;72.00
79639;BME280;69114;49.108;8.280;2023-04-09T06:24:53;101265.50;;;6.46;72.97
79639;BME280;69114;49.108;8.280;2023-04-09T06:27:19;101261.53;;;6.37;72.29
79639;BME280;69114;49.108;8.280;2023-04-09T06:29:46;101267.06;;;6.37;73.35
79639;BME280;69114;49.108;8.280;2023-04-09T06:32:11;101263.66;;;6.30;73.08
79639;BME280;69114;49.108;8.280;2023-04-09T06:34:36;101268.38;;;6.29;73.31
79639;BME280;69114;49.108;8.280;2023-04-09T06:37:02;101259.25;;;6.29;73.67
79639;BME280;69114;49.108;8.280;2023-04-09T06:39:27;101263.66;;;6.30;73.03
79639;BME280;69114;49.108;8.280;2023-04-09T06:41:53;101261.16;;;6.28;73.01
79639;BME280;69114;49.108;8.280;2023-04-09T06:44:18;101264.81;;;6.34;73.33
79639;BME280;69114;49.108;8.280;2023-04-09T06:46:45;101272.91;;;6.40;72.55
79639;BME280;69114;49.108;8.280;2023-04-09T06:49:10;101276.91;;;6.55;72.12
79639;BME280;69114;49.108;8.280;2023-04-09T06:51:36;101281.81;;;6.75;71.63
79639;BME280;69114;49.108;8.280;2023-04-09T06:54:01;101280.03;;;6.96;70.53
79639;BME280;69114;49.108;8.280;2023-04-09T06:56:27;101270.00;;;7.22;70.10
79639;BME280;69114;49.108;8.280;2023-04-09T06:58:52;101274.06;;;7.56;67.95
79639;BME280;69114;49.108;8.280;2023-04-09T07:01:18;101269.78;;;7.91;67.89
79639;BME280;69114;49.108;8.280;2023-04-09T07:03:44;101266.25;;;8.16;66.87
79639;BME280;69114;49.108;8.280;2023-04-09T07:06:09;101268.28;;;8.36;65.11
79639;BME280;69114;49.108;8.280;2023-04-09T07:08:35;101269.16;;;8.52;65.85
79639;BME280;69114;49.108;8.280;2023-04-09T07:11:00;101272.22;;;8.76;65.44
79639;BME280;69114;49.108;8.280;2023-04-09T07:13:25;101268.34;;;8.77;63.42
79639;BME280;69114;49.108;8.280;2023-04-09T07:15:51;101270.00;;;8.72;64.17
79639;BME280;69114;49.108;8.280;2023-04-09T07:18:16;101276.66;;;8.66;64.52
79639;BME280;69114;49.108;8.280;2023-04-09T07:20:41;101272.78;;;8.67;63.83
79639;BME280;69114;49.108;8.280;2023-04-09T07:23:07;101270.28;;;8.71;64.79
79639;BME280;69114;49.108;8.280;2023-04-09T07:28:07;101272.78;;;8.83;64.45
79639;BME280;69114;49.108;8.280;2023-04-09T07:30:33;101266.38;;;8.92;63.10
79639;BME280;69114;49.108;8.280;2023-04-09T07:32:58;101271.38;;;9.01;64.06
79639;BME280;69114;49.108;8.280;2023-04-09T07:35:24;101271.13;;;9.07;63.04
79639;BME280;69114;49.108;8.280;2023-04-09T07:37:49;101273.88;;;9.12;64.11
79639;BME280;69114;49.108;8.280;2023-04-09T07:40:15;101283.88;;;9.29;63.23
79639;BME280;69114;49.108;8.280;2023-04-09T07:42:40;101278.88;;;9.36;63.17
79639;BME280;69114;49.108;8.280;2023-04-09T07:45:06;101276.34;;;9.39;62.97
79639;BME280;69114;49.108;8.280;2023-04-09T07:47:32;101279.09;;;9.60;62.40
79639;BME280;69114;49.108;8.280;2023-04-09T07:49:57;101279.59;;;9.67;62.22
79639;BME280;69114;49.108;8.280;2023-04-09T07:52:23;101284.00;;;9.83;60.74
79639;BME280;69114;49.108;8.280;2023-04-09T07:54:48;101288.50;;;9.69;61.46
79639;BME280;69114;49.108;8.280;2023-04-09T07:57:14;101292.38;;;9.73;61.43
79639;BME280;69114;49.108;8.280;2023-04-09T07:59:40;101285.66;;;9.89;61.18
79639;BME280;69114;49.108;8.280;2023-04-09T08:02:06;101283.75;;;9.80;61.33
79639;BME280;69114;49.108;8.280;2023-04-09T08:04:31;101282.63;;;9.75;62.38
79639;BME280;69114;49.108;8.280;2023-04-09T08:06:56;101288.06;;;10.06;61.59
79639;BME280;69114;49.108;8.280;2023-04-09T08:09:22;101290.22;;;10.24;60.05
79639;BME280;69114;49.108;8.280;2023-04-09T08:11:48;101290.84;;;10.11;59.64
79639;BME280;69114;49.108;8.280;2023-04-09T08:14:14;101285.16;;;10.37;59.71
79639;BME280;69114;49.108;8.280;2023-04-09T08:16:41;101285.63;;;10.49;58.52
79639;BME280;69114;49.108;8.280;2023-04-09T08:19:08;101290.75;;;10.37;59.30
79639;BME280;69114;49.108;8.280;2023-04-09T08:21:36;101283.50;;;10.75;58.39
79639;BME280;69114;49.108;8.280;2023-04-09T08:24:01;101279.28;;;10.83;57.49
79639;BME280;69114;49.108;8.280;2023-04-09T08:26:29;101286.91;;;11.01;56.68
79639;BME280;69114;49.108;8.280;2023-04-09T08:28:55;101294.09;;;11.12;56.24
79639;BME280;69114;49.108;8.280;2023-04-09T08:31:20;101299.66;;;11.12;56.80
79639;BME280;69114;49.108;8.280;2023-04-09T08:33:46;101298.63;;;11.32;56.49
79639;BME280;69114;49.108;8.280;2023-04-09T08:36:11;101290.59;;;11.54;56.54
79639;BME280;69114;49.108;8.280;2023-04-09T08:38:37;101295.28;;;11.59;56.66
79639;BME280;69114;49.108;8.280;2023-04-09T08:41:03;101288.47;;;11.70;55.75
79639;BME280;69114;49.108;8.280;2023-04-09T08:43:29;101292.38;;;11.69;55.32
79639;BME280;69114;49.108;8.280;2023-04-09T08:45:56;101295.19;;;11.69;54.87
79639;BME280;69114;49.108;8.280;2023-04-09T08:48:23;101292.38;;;11.69;54.74
79639;BME280;69114;49.108;8.280;2023-04-09T08:50:49;101286.75;;;11.74;54.82
79639;BME280;69114;49.108;8.280;2023-04-09T08:53:16;101288.94;;;11.83;53.89
79639;BME280;69114;49.108;8.280;2023-04-09T08:55:44;101291.09;;;11.86;54.68
79639;BME280;69114;49.108;8.280;2023-04-09T08:58:10;101291.88;;;11.91;54.22
79639;BME280;69114;49.108;8.280;2023-04-09T09:00:36;101296.91;;;12.13;54.13
79639;BME280;69114;49.108;8.280;2023-04-09T09:03:10;101295.25;;;12.12;53.88
79639;BME280;69114;49.108;8.280;2023-04-09T09:05:44;101302.44;;;12.37;52.51
79639;BME280;69114;49.108;8.280;2023-04-09T09:08:14;101300.47;;;12.19;52.26
79639;BME280;69114;49.108;8.280;2023-04-09T09:10:46;101297.25;;;11.88;51.29
79639;BME280;69114;49.108;8.280;2023-04-09T09:13:25;101294.44;;;11.88;53.56
79639;BME280;69114;49.108;8.280;2023-04-09T09:16:10;101291.63;;;12.12;51.36
79639;BME280;69114;49.108;8.280;2023-04-09T09:18:41;101288.72;;;11.98;50.51
79639;BME280;69114;49.108;8.280;2023-04-09T09:21:14;101298.25;;;12.59;50.13
79639;BME280;69114;49.108;8.280;2023-04-09T09:23:40;101296.50;;;12.44;49.11
79639;BME280;69114;49.108;8.280;2023-04-09T09:26:11;101295.78;;;12.33;49.38
79639;BME280;69114;49.108;8.280;2023-04-09T09:28:37;101294.66;;;12.53;48.81
79639;BME280;69114;49.108;8.280;2023-04-09T09:31:11;101287.19;;;12.48;48.68
79639;BME280;69114;49.108;8.280;2023-04-09T09:33:37;101294.97;;;12.70;48.51
79639;BME280;69114;49.108;8.280;2023-04-09T09:36:03;101289.34;;;13.08;46.54
79639;BME280;69114;49.108;8.280;2023-04-09T09:38:29;101295.34;;;12.82;45.14
79639;BME280;69114;49.108;8.280;2023-04-09T09:40:55;101290.97;;;12.57;46.54
79639;BME280;69114;49.108;8.280;2023-04-09T09:43:20;101278.97;;;12.57;46.21
79639;BME280;69114;49.108;8.280;2023-04-09T09:45:47;101286.44;;;13.13;46.82
79639;BME280;69114;49.108;8.280;2023-04-09T09:48:12;101286.72;;;12.98;47.09
79639;BME280;69114;49.108;8.280;2023-04-09T09:50:39;101279.03;;;12.52;47.76
79639;BME280;69114;49.108;8.280;2023-04-09T09:53:07;101278.81;;;12.67;48.32
79639;BME280;69114;49.108;8.280;2023-04-09T09:55:37;101282.75;;;12.66;48.06
79639;BME280;69114;49.108;8.280;2023-04-09T09:58:07;101284.78;;;12.61;49.00
79639;BME280;69114;49.108;8.280;2023-04-09T10:00:36;101285.47;;;12.52;46.09
79639;BME280;69114;49.108;8.280;2023-04-09T10:03:11;101286.38;;;12.48;47.63
79639;BME280;69114;49.108;8.280;2023-04-09T10:05:39;101281.25;;;12.55;47.86
79639;BME280;69114;49.108;8.280;2023-04-09T10:08:05;101281.84;;;12.52;49.18
79639;BME280;69114;49.108;8.280;2023-04-09T10:10:32;101280.19;;;12.51;49.02
79639;BME280;69114;49.108;8.280;2023-04-09T10:12:58;101275.88;;;12.59;47.94
79639;BME280;69114;49.108;8.280;2023-04-09T10:15:25;101270.09;;;12.88;47.68
79639;BME280;69114;49.108;8.280;2023-04-09T10:17:52;101277.09;;;13.04;47.38
79639;BME280;69114;49.108;8.280;2023-04-09T10:21:08;101278.59;;;13.15;45.78
79639;BME280;69114;49.108;8.280;2023-04-09T10:23:43;101260.00;;;13.38;45.67
79639;BME280;69114;49.108;8.280;2023-04-09T10:26:09;101267.16;;;13.30;43.67
79639;BME280;69114;49.108;8.280;2023-04-09T10:28:38;101263.16;;;13.64;44.15
79639;BME280;69114;49.108;8.280;2023-04-09T10:31:04;101263.66;;;14.07;42.68
79639;BME280;69114;49.108;8.280;2023-04-09T10:33:30;101254.53;;;13.88;41.27
79639;BME280;69114;49.108;8.280;2023-04-09T10:36:04;101256.72;;;13.77;41.77
79639;BME280;69114;49.108;8.280;2023-04-09T10:41:14;101253.72;;;14.38;40.43
79639;BME280;69114;49.108;8.280;2023-04-09T10:43:41;101255.22;;;14.21;41.93
79639;BME280;69114;49.108;8.280;2023-04-09T10:46:08;101254.41;;;14.07;38.72
79639;BME280;69114;49.108;8.280;2023-04-09T10:51:41;101246.28;;;14.19;38.10
79639;BME280;69114;49.108;8.280;2023-04-09T10:59:31;101246.00;;;14.57;40.22
79639;BME280;69114;49.108;8.280;2023-04-09T11:01:56;101245.28;;;14.88;39.17
79639;BME280;69114;49.108;8.280;2023-04-09T11:04:28;101235.34;;;14.81;39.75
79639;BME280;69114;49.108;8.280;2023-04-09T11:06:59;101237.94;;;15.31;36.63
79639;BME280;69114;49.108;8.280;2023-04-09T11:09:25;101234.75;;;15.16;34.81
79639;BME280;69114;49.108;8.280;2023-04-09T11:11:52;101237.03;;;15.45;37.26
79639;BME280;69114;49.108;8.280;2023-04-09T11:14:20;101235.28;;;15.26;38.36
79639;BME280;69114;49.108;8.280;2023-04-09T11:16:46;101235.72;;;14.89;37.82
79639;BME280;69114;49.108;8.280;2023-04-09T11:19:12;101240.63;;;14.47;38.84
79639;BME280;69114;49.108;8.280;2023-04-09T11:21:41;101236.78;;;14.56;38.58
79639;BME280;69114;49.108;8.280;2023-04-09T11:24:11;101244.94;;;14.30;39.69
79639;BME280;69114;49.108;8.280;2023-04-09T11:26:36;101233.00;;;14.39;38.76
79639;BME280;69114;49.108;8.280;2023-04-09T11:29:06;101239.16;;;14.63;39.39
79639;BME280;69114;49.108;8.280;2023-04-09T11:31:33;101231.69;;;15.66;36.49
79639;BME280;69114;49.108;8.280;2023-04-09T11:33:59;101227.34;;;15.91;33.98
79639;BME280;69114;49.108;8.280;2023-04-09T11:36:24;101226.72;;;15.31;34.75
79639;BME280;69114;49.108;8.280;2023-04-09T11:38:51;101233.13;;;15.23;37.23
79639;BME280;69114;49.108;8.280;2023-04-09T11:41:32;101232.63;;;14.76;37.65
79639;BME280;69114;49.108;8.280;2023-04-09T11:43:57;101232.31;;;14.55;37.51
79639;BME280;69114;49.108;8.280;2023-04-09T11:46:23;101226.50;;;14.52;37.75
79639;BME280;69114;49.108;8.280;2023-04-09T11:48:50;101232.94;;;14.52;37.92
79639;BME280;69114;49.108;8.280;2023-04-09T11:51:16;101232.00;;;14.57;37.80
79639;BME280;69114;49.108;8.280;2023-04-09T11:53:42;101231.63;;;14.50;37.59
79639;BME280;69114;49.108;8.280;2023-04-09T11:56:07;101242.94;;;14.45;37.62
79639;BME280;69114;49.108;8.280;2023-04-09T11:58:32;101231.88;;;14.62;37.14
79639;BME280;69114;49.108;8.280;2023-04-09T12:00:58;101236.47;;;14.58;38.06
79639;BME280;69114;49.108;8.280;2023-04-09T12:03:30;101228.00;;;14.49;37.64
79639;BME280;69114;49.108;8.280;2023-04-09T12:06:00;101223.22;;;14.36;36.47
79639;BME280;69114;49.108;8.280;2023-04-09T12:08:26;101228.53;;;14.24;38.74
79639;BME280;69114;49.108;8.280;2023-04-09T12:10:52;101234.88;;;14.29;38.30
79639;BME280;69114;49.108;8.280;2023-04-09T12:13:18;101229.97;;;14.35;38.51
79639;BME280;69114;49.108;8.280;2023-04-09T12:15:47;101219.44;;;14.04;37.50
79639;BME280;69114;49.108;8.280;2023-04-09T12:18:13;101223.41;;;13.90;37.53
79639;BME280;69114;49.108;8.280;2023-04-09T12:20:40;101218.25;;;13.83;38.12
79639;BME280;69114;49.108;8.280;2023-04-09T12:23:10;101221.25;;;13.87;39.37
79639;BME280;69114;49.108;8.280;2023-04-09T12:25:38;101217.09;;;13.84;37.85
79639;BME280;69114;49.108;8.280;2023-04-09T12:28:04;101224.09;;;14.23;38.91
79639;BME280;69114;49.108;8.280;2023-04-09T12:30:31;101213.94;;;14.13;37.92
79639;BME280;69114;49.108;8.280;2023-04-09T12:32:57;101205.19;;;14.28;38.05
79639;BME280;69114;49.108;8.280;2023-04-09T12:35:22;101216.78;;;14.49;36.58
79639;BME280;69114;49.108;8.280;2023-04-09T12:37:51;101206.28;;;14.41;37.69
79639;BME280;69114;49.108;8.280;2023-04-09T12:40:17;101204.28;;;14.55;39.54
79639;BME280;69114;49.108;8.280;2023-04-09T12:42:44;101202.22;;;15.54;34.69
79639;BME280;69114;49.108;8.280;2023-04-09T12:45:12;101192.13;;;17.06;31.59
79639;BME280;69114;49.108;8.280;2023-04-09T12:47:38;101197.59;;;16.94;30.71
79639;BME280;69114;49.108;8.280;2023-04-09T12:50:07;101188.03;;;16.77;32.38
79639;BME280;69114;49.108;8.280;2023-04-09T12:52:34;101186.69;;;16.66;30.92
79639;BME280;69114;49.108;8.280;2023-04-09T12:54:59;101190.34;;;16.06;33.92
79639;BME280;69114;49.108;8.280;2023-04-09T12:57:26;101198.22;;;15.86;33.50
79639;BME280;69114;49.108;8.280;2023-04-09T12:59:51;101192.28;;;15.97;32.65
79639;BME280;69114;49.108;8.280;2023-04-09T13:02:18;101198.00;;;15.03;32.84
79639;BME280;69114;49.108;8.280;2023-04-09T13:04:43;101187.13;;;15.42;33.35
79639;BME280;69114;49.108;8.280;2023-04-09T13:07:08;101185.56;;;16.24;32.51
79639;BME280;69114;49.108;8.280;2023-04-09T13:09:34;101187.94;;;15.73;31.56